Time;durP1;ratioP1;P1;durP2;ratioP2;P2;SDS_P1;SDS_P2;PMS_P1;PMS_P2;Temp;Humidity;BMP_temperature;BMP_pressure;BME280_temperature;BME280_humidity;BME280_pressure;Samples;Min_cycle;Max_cycle;Signal;HPM_P1;HPM_P2
2024/04/05 00:01:54;;;;;;;2.55;1.52;;;;;;;10.83;95.11;95052.41;10442034;28;20407;-76
2024/04/05 00:06:54;;;;;;;3.85;0.52;;;;;;;10.88;98.13;95061.28;10468176;28;20549;-75
2024/04/05 00:11:55;;;;;;;0.00;0.00;;;;;;;10.83;94.93;95052.41;10449586;28;20075;-75
2024/04/05 00:16:55;;;;;;;0.40;0.00;;;;;;;10.70;95.24;95046.50;10467498;28;20490;-75
2024/04/05 00:21:55;;;;;;;0.00;0.00;;;;;;;10.70;95.49;95051.88;10466388;28;20369;-76
2024/04/05 00:26:56;;;;;;;7.68;7.13;;;;;;;10.66;97.42;95055.34;10466681;28;20044;-75
2024/04/05 00:31:56;;;;;;;3.20;2.87;;;;;;;10.74;99.66;95044.88;10447658;28;20513;-76
2024/04/05 00:36:56;;;;;;;0.00;0.00;;;;;;;10.70;96.65;95057.25;10448220;28;20795;-75
2024/04/05 00:41:57;;;;;;;2.10;0.40;;;;;;;10.62;97.31;95040.81;10448583;28;20050;-76
2024/04/05 00:46:58;;;;;;;2.80;2.17;;;;;;;10.58;99.51;95043.22;10465645;28;20028;-76
2024/04/05 00:52:00;;;;;;;3.50;2.63;;;;;;;10.46;100.00;95058.78;10465281;28;20286;-77
2024/04/05 00:57:00;;;;;;;31.75;13.98;;;;;;;10.37;100.00;95056.59;10465501;28;20419;-77
2024/04/05 01:02:01;;;;;;;16.88;9.65;;;;;;;10.30;100.00;95068.63;10457615;28;20055;-76
2024/04/05 01:07:01;;;;;;;0.30;0.30;;;;;;;10.33;100.00;95070.81;10464852;28;20036;-76
2024/04/05 01:12:02;;;;;;;0.65;0.00;;;;;;;10.09;100.00;95068.56;10465969;28;20043;-75
2024/04/05 01:17:03;;;;;;;4.47;1.27;;;;;;;9.98;100.00;95077.63;10463885;28;20399;-77
2024/04/05 01:22:06;;;;;;;0.00;0.00;;;;;;;9.90;100.00;95081.59;10464939;28;20071;-75
2024/04/05 01:27:06;;;;;;;0.40;0.00;;;;;;;9.62;100.00;95085.47;10464260;28;20050;-76
2024/04/05 01:32:06;;;;;;;0.87;0.00;;;;;;;9.57;100.00;95089.72;10463360;28;20029;-75
2024/04/05 01:37:07;;;;;;;0.00;0.00;;;;;;;9.37;100.00;95095.75;10463499;28;20369;-76
2024/04/05 01:42:07;;;;;;;0.00;0.00;;;;;;;9.34;100.00;95088.22;10464050;28;20803;-75
2024/04/05 01:47:08;;;;;;;0.00;0.00;;;;;;;9.46;100.00;95087.22;10463707;28;20040;-76
2024/04/05 01:52:08;;;;;;;0.00;0.00;;;;;;;9.50;100.00;95088.31;10444692;28;20503;-75
2024/04/05 01:57:08;;;;;;;10.00;0.60;;;;;;;9.53;100.00;95095.84;10463549;28;20025;-75
2024/04/05 02:02:10;;;;;;;13.60;8.20;;;;;;;9.46;100.00;95089.91;10462880;28;20275;-76
2024/04/05 02:07:10;;;;;;;0.00;0.00;;;;;;;9.56;100.00;95092.69;10462075;28;20039;-76
2024/04/05 02:12:10;;;;;;;5.78;5.00;;;;;;;9.63;100.00;95093.25;10444816;28;20384;-75
2024/04/05 02:17:11;;;;;;;41.33;21.05;;;;;;;9.45;100.00;95094.47;10462583;28;20111;-76
2024/04/05 02:22:12;;;;;;;68.38;26.63;;;;;;;9.36;100.00;95090.63;10461543;28;20045;-75
2024/04/05 02:27:12;;;;;;;73.93;27.65;;;;;;;9.45;100.00;95091.00;10461580;28;20017;-76
2024/04/05 02:32:12;;;;;;;61.97;25.80;;;;;;;9.48;100.00;95099.31;10462632;28;20728;-76
2024/04/05 02:37:13;;;;;;;68.35;26.85;;;;;;;9.51;100.00;95111.41;10463153;28;20048;-76
2024/04/05 02:42:13;;;;;;;65.70;26.48;;;;;;;9.51;100.00;95122.16;10445632;28;20039;-75
2024/04/05 02:47:13;;;;;;;58.00;24.00;;;;;;;9.35;100.00;95113.97;10463354;28;20435;-75
2024/04/05 02:52:14;;;;;;;29.48;18.85;;;;;;;9.32;100.00;95114.50;10462730;28;20533;-75
2024/04/05 02:57:14;;;;;;;28.52;18.52;;;;;;;9.20;100.00;95113.84;10442403;28;20115;-74
2024/04/05 03:02:14;;;;;;;17.33;14.30;;;;;;;9.05;100.00;95119.88;10444963;28;20114;-75
2024/04/05 03:07:15;;;;;;;13.57;1.30;;;;;;;9.09;100.00;95120.97;10462161;28;20290;-75
2024/04/05 03:12:16;;;;;;;2.17;0.97;;;;;;;9.07;100.00;95125.81;10443821;28;20274;-76
2024/04/05 03:17:16;;;;;;;0.10;0.00;;;;;;;9.02;100.00;95123.88;10460927;28;20301;-75
2024/04/05 03:22:17;;;;;;;3.92;0.05;;;;;;;9.01;100.00;95118.75;10459381;28;20567;-75
2024/04/05 03:27:17;;;;;;;0.00;0.00;;;;;;;8.98;100.00;95133.47;10443023;28;20078;-74
2024/04/05 03:32:17;;;;;;;7.13;1.30;;;;;;;8.94;100.00;95127.00;10461519;28;20096;-75
2024/04/05 03:37:17;;;;;;;0.00;0.00;;;;;;;8.99;100.00;95131.63;10461676;28;20721;-75
2024/04/05 03:42:21;;;;;;;2.07;1.97;;;;;;;9.02;100.00;95144.50;10466805;28;20321;-75
2024/04/05 03:47:21;;;;;;;2.08;1.10;;;;;;;9.11;100.00;95118.88;10467261;28;20291;-74
2024/04/05 03:52:22;;;;;;;0.10;0.10;;;;;;;9.14;100.00;95128.25;10460438;28;20036;-73
2024/04/05 03:57:22;;;;;;;1.08;0.00;;;;;;;9.19;100.00;95139.84;10425719;28;20449;-76
2024/04/05 04:02:23;;;;;;;1.08;0.00;;;;;;;9.15;100.00;95138.72;10432421;28;20485;-75
2024/04/05 04:07:23;;;;;;;0.00;0.00;;;;;;;9.09;100.00;95139.75;10449813;28;20459;-75
2024/04/05 04:12:23;;;;;;;1.80;1.70;;;;;;;8.98;100.00;95138.84;10466985;28;20130;-73
2024/04/05 04:17:24;;;;;;;8.05;0.08;;;;;;;9.07;100.00;95150.72;10466815;28;20267;-75
2024/04/05 04:22:24;;;;;;;0.00;0.00;;;;;;;8.99;100.00;95155.75;10466168;28;20044;-75
2024/04/05 04:27:25;;;;;;;1.15;0.00;;;;;;;9.04;100.00;95161.97;10467532;28;20032;-74
2024/04/05 04:32:27;;;;;;;0.45;0.00;;;;;;;9.11;100.00;95164.44;10416683;28;20025;-75
2024/04/05 04:37:27;;;;;;;0.30;0.00;;;;;;;9.26;100.00;95171.81;10466381;28;20476;-74
2024/04/05 04:42:28;;;;;;;3.73;0.10;;;;;;;9.41;100.00;95176.53;10465232;28;20028;-75
2024/04/05 04:47:29;;;;;;;1.45;0.00;;;;;;;9.60;100.00;95184.19;10463509;28;20322;-75
2024/04/05 04:52:29;;;;;;;6.35;0.00;;;;;;;9.75;100.00;95178.94;10447726;28;20471;-76
2024/04/05 04:57:32;;;;;;;1.60;0.03;;;;;;;9.87;100.00;95194.88;10464882;28;20379;-76
2024/04/05 05:02:32;;;;;;;0.00;0.00;;;;;;;10.00;100.00;95194.44;10465742;28;20032;-76
2024/04/05 05:07:32;;;;;;;0.10;0.00;;;;;;;10.27;100.00;95194.34;10465078;28;20039;-76
2024/04/05 05:12:33;;;;;;;0.13;0.00;;;;;;;10.61;100.00;95203.97;10445501;28;20263;-77
2024/04/05 05:17:33;;;;;;;1.23;0.00;;;;;;;11.18;100.00;95201.50;10443303;28;21122;-76
2024/04/05 05:22:33;;;;;;;1.60;1.50;;;;;;;11.59;95.61;95204.25;10460859;28;20291;-77
2024/04/05 05:27:34;;;;;;;0.00;0.00;;;;;;;12.32;88.87;95208.56;10456067;28;20284;-76
2024/04/05 05:32:34;;;;;;;0.35;0.00;;;;;;;12.91;81.74;95204.34;10463166;28;20270;-76
2024/04/05 05:37:34;;;;;;;1.23;0.00;;;;;;;13.57;77.97;95207.00;10459500;28;20036;-77
2024/04/05 05:42:35;;;;;;;0.00;0.00;;;;;;;14.55;68.69;95206.19;10445573;28;20267;-76
2024/04/05 05:47:35;;;;;;;1.27;0.00;;;;;;;15.08;65.51;95200.72;10445457;28;20495;-75
2024/04/05 05:52:36;;;;;;;10.05;0.10;;;;;;;15.89;67.37;95210.72;10444421;28;20340;-76
2024/04/05 05:57:36;;;;;;;3.20;0.00;;;;;;;16.28;61.62;95214.97;10463288;28;20029;-77
2024/04/05 06:02:38;;;;;;;0.85;0.00;;;;;;;17.42;55.76;95206.31;10444383;28;20763;-77
2024/04/05 06:07:38;;;;;;;1.75;0.00;;;;;;;18.21;49.81;95208.88;10444301;28;20490;-76
2024/04/05 06:12:41;;;;;;;8.25;0.10;;;;;;;19.24;46.62;95214.34;10463165;28;20025;-77
2024/04/05 06:17:46;;;;;;;0.50;0.00;;;;;;;19.77;45.35;95204.34;10462394;28;20135;-77
2024/04/05 06:22:46;;;;;;;1.23;0.90;;;;;;;20.46;41.91;95198.03;10462030;28;20522;-76
2024/04/05 06:27:46;;;;;;;0.47;0.00;;;;;;;20.62;41.53;95203.81;10444275;28;20037;-77
2024/04/05 06:32:47;;;;;;;3.77;0.00;;;;;;;19.94;41.47;95219.94;10448662;28;20638;-76
2024/04/05 06:37:47;;;;;;;3.20;0.00;;;;;;;20.03;40.63;95225.41;10461865;28;20761;-78
2024/04/05 06:42:47;;;;;;;2.17;0.03;;;;;;;20.61;40.24;95223.22;10462654;28;20840;-77
2024/04/05 06:47:49;;;;;;;0.87;0.00;;;;;;;21.09;40.23;95222.13;10461298;28;20024;-76
2024/04/05 06:52:49;;;;;;;2.72;0.05;;;;;;;21.45;39.38;95239.16;10460291;28;20503;-76
2024/04/05 06:57:53;;;;;;;6.32;0.10;;;;;;;22.41;38.90;95243.16;10461451;28;20059;-76
2024/04/05 07:02:53;;;;;;;6.22;0.10;;;;;;;22.03;38.29;95247.63;10430752;28;20028;-76
2024/04/05 07:07:54;;;;;;;11.47;0.10;;;;;;;22.83;38.40;95257.56;10460990;28;20541;-76
2024/04/05 07:12:54;;;;;;;5.40;0.07;;;;;;;23.37;36.31;95253.91;10461226;28;20275;-76
2024/04/05 07:17:55;;;;;;;11.32;0.00;;;;;;;24.21;34.86;95251.75;10468300;28;20032;-77
2024/04/05 07:22:56;;;;;;;10.10;0.10;;;;;;;24.87;34.06;95255.94;10468757;28;20056;-75
2024/04/05 07:27:56;;;;;;;7.10;0.00;;;;;;;25.77;32.17;95240.84;10468622;28;20419;-76
2024/04/05 07:32:56;;;;;;;0.30;0.00;;;;;;;27.04;30.14;95225.72;10468324;28;20032;-76
2024/04/05 07:37:57;;;;;;;2.05;1.85;;;;;;;28.03;28.78;95226.09;10468798;28;20025;-77
2024/04/05 07:42:57;;;;;;;0.88;0.00;;;;;;;28.08;28.59;95228.56;10469675;28;20498;-76
2024/04/05 07:47:58;;;;;;;3.20;0.07;;;;;;;28.51;28.96;95239.34;10467213;28;20032;-76
2024/04/05 07:52:58;;;;;;;0.87;0.00;;;;;;;29.85;27.38;95231.16;10466974;28;20028;-77
2024/04/05 07:57:58;;;;;;;2.23;0.00;;;;;;;29.76;26.88;95231.44;10468039;28;20380;-75
2024/04/05 08:02:59;;;;;;;0.50;0.00;;;;;;;29.64;27.87;95226.25;10467675;28;20274;-75
2024/04/05 08:07:59;;;;;;;0.00;0.00;;;;;;;30.44;25.80;95222.75;10466921;28;20040;-74
2024/04/05 08:13:00;;;;;;;0.00;0.00;;;;;;;31.16;24.99;95211.06;10467991;28;20365;-76
2024/04/05 08:18:00;;;;;;;1.05;0.00;;;;;;;32.33;24.43;95218.88;10466948;28;20032;-75
2024/04/05 08:23:00;;;;;;;0.00;0.00;;;;;;;31.90;24.08;95225.34;10465516;28;20427;-75
2024/04/05 08:28:02;;;;;;;1.13;0.00;;;;;;;31.84;24.26;95224.16;10465800;28;20020;-75
2024/04/05 08:33:04;;;;;;;0.00;0.00;;;;;;;30.44;23.85;95214.44;10466485;28;20032;-75
2024/04/05 08:38:05;;;;;;;0.00;0.00;;;;;;;31.36;24.66;95215.03;10466046;28;20460;-76
2024/04/05 08:43:09;;;;;;;0.00;0.00;;;;;;;32.49;22.77;95196.97;10466632;28;20505;-74
2024/04/05 08:48:10;;;;;;;0.00;0.00;;;;;;;32.59;21.96;95205.69;10465860;28;20086;-75
2024/04/05 08:53:11;;;;;;;0.00;0.00;;;;;;;31.64;21.35;95199.56;10464680;28;20252;-75
2024/04/05 08:58:13;;;;;;;0.00;0.00;;;;;;;29.54;25.26;95196.47;10488126;28;20036;-75
2024/04/05 09:03:13;;;;;;;0.00;0.00;;;;;;;26.02;28.58;95213.09;10470783;28;20033;-75
2024/04/05 09:08:14;;;;;;;0.00;0.00;;;;;;;26.70;27.86;95203.44;10446993;28;20452;-76
2024/04/05 09:13:17;;;;;;;0.00;0.00;;;;;;;28.80;26.02;95202.56;10481071;28;20824;-75
2024/04/05 09:18:27;;;;;;;0.00;0.00;;;;;;;29.17;24.31;95194.59;10464535;28;20083;-75
2024/04/05 09:23:27;;;;;;;0.00;0.00;;;;;;;27.56;28.41;95200.53;10464119;28;20186;-75
2024/04/05 09:28:29;;;;;;;0.00;0.00;;;;;;;26.74;26.94;95204.31;10463592;28;20360;-74
2024/04/05 09:33:29;;;;;;;0.00;0.00;;;;;;;25.11;28.04;95209.41;10464311;28;20314;-76
2024/04/05 09:38:33;;;;;;;0.00;0.00;;;;;;;24.61;29.44;95215.19;10463871;28;20025;-75
2024/04/05 09:43:35;;;;;;;0.00;0.00;;;;;;;25.37;28.15;95201.44;10463906;28;20887;-76
2024/04/05 09:48:35;;;;;;;0.00;0.00;;;;;;;26.45;29.19;95200.19;10463558;28;20036;-76
2024/04/05 09:53:40;;;;;;;0.00;0.00;;;;;;;26.42;28.97;95196.22;10462296;28;20032;-74
2024/04/05 09:58:41;;;;;;;0.00;0.00;;;;;;;26.85;27.75;95195.44;10462771;28;20349;-76
2024/04/05 10:03:45;;;;;;;0.00;0.00;;;;;;;27.75;27.41;95200.44;10463024;28;20119;-75
2024/04/05 10:08:45;;;;;;;0.00;0.00;;;;;;;27.39;27.21;95205.44;10462110;28;20435;-75
2024/04/05 10:13:46;;;;;;;0.00;0.00;;;;;;;27.44;26.71;95187.75;10461186;28;20108;-76
2024/04/05 10:18:46;;;;;;;0.00;0.00;;;;;;;27.28;26.12;95185.09;10461313;28;20552;-75
2024/04/05 10:23:46;;;;;;;0.00;0.00;;;;;;;28.46;24.77;95182.41;10459912;28;20305;-76
2024/04/05 10:28:47;;;;;;;0.00;0.00;;;;;;;31.54;25.07;95169.81;10462667;28;20036;-76
2024/04/05 10:33:47;;;;;;;0.00;0.00;;;;;;;30.83;23.51;95172.13;10461480;28;20016;-80
2024/04/05 10:38:48;;;;;;;0.00;0.00;;;;;;;28.94;25.24;95174.25;10461259;28;20440;-76
2024/04/05 10:43:59;;;;;;;0.00;0.00;;;;;;;28.96;25.52;95157.25;10463010;28;21031;-77
2024/04/05 10:49:00;;;;;;;0.00;0.00;;;;;;;27.27;28.13;95166.97;10444008;28;20368;-77
2024/04/05 10:54:07;;;;;;;0.00;0.00;;;;;;;26.30;28.33;95166.03;10469415;28;20032;-75
2024/04/05 10:59:10;;;;;;;0.00;0.00;;;;;;;26.33;28.49;95167.28;10469741;28;20059;-75
2024/04/05 11:04:10;;;;;;;0.00;0.00;;;;;;;26.30;28.04;95157.00;10470004;28;20040;-76
2024/04/05 11:09:14;;;;;;;0.00;0.00;;;;;;;27.99;26.94;95156.16;10469660;28;20032;-76
2024/04/05 11:14:14;;;;;;;0.00;0.00;;;;;;;30.58;25.53;95147.13;10469230;28;20035;-76
2024/04/05 11:19:24;;;;;;;0.00;0.00;;;;;;;29.23;25.79;95157.84;10469236;28;20510;-77
2024/04/05 11:24:25;;;;;;;0.00;0.00;;;;;;;27.91;26.87;95166.34;10468002;28;20808;-77
2024/04/05 11:29:25;;;;;;;0.00;0.00;;;;;;;26.69;28.27;95163.25;10469103;28;20032;-75
2024/04/05 11:34:26;;;;;;;0.00;0.00;;;;;;;25.87;29.81;95148.63;10468242;28;20043;-76
2024/04/05 11:39:27;;;;;;;0.00;0.00;;;;;;;24.79;30.19;95146.16;10467619;28;20025;-75
2024/04/05 11:44:27;;;;;;;0.00;0.00;;;;;;;22.85;31.22;95156.63;10468093;28;20262;-75
2024/04/05 11:49:27;;;;;;;0.00;0.00;;;;;;;22.93;33.79;95163.16;10467977;28;20419;-76
2024/04/05 11:54:28;;;;;;;0.00;0.00;;;;;;;23.45;32.42;95152.63;10466947;28;20654;-76
2024/04/05 11:59:28;;;;;;;0.00;0.00;;;;;;;23.46;31.39;95140.53;10467344;28;20021;-76
2024/04/05 12:04:29;;;;;;;0.00;0.00;;;;;;;23.57;31.67;95146.31;10439739;28;20475;-76
2024/04/05 12:09:29;;;;;;;0.00;0.00;;;;;;;23.37;31.24;95144.19;10466885;28;20314;-75
2024/04/05 12:14:32;;;;;;;0.00;0.00;;;;;;;22.91;32.77;95146.22;10467538;28;20278;-76
2024/04/05 12:19:33;;;;;;;0.00;0.00;;;;;;;21.68;35.57;95149.41;10467224;28;20025;-76
2024/04/05 12:24:34;;;;;;;0.00;0.00;;;;;;;22.01;34.60;95149.44;10465500;28;20368;-77
2024/04/05 12:29:35;;;;;;;0.00;0.00;;;;;;;22.12;34.64;95140.84;10466284;28;20286;-76
2024/04/05 12:34:35;;;;;;;0.00;0.00;;;;;;;22.42;34.24;95138.75;10466733;28;20090;-75
2024/04/05 12:39:36;;;;;;;0.00;0.00;;;;;;;22.52;33.90;95121.91;10446948;28;20062;-74
2024/04/05 12:44:36;;;;;;;0.00;0.00;;;;;;;22.15;32.33;95113.56;10470873;28;20118;-76
2024/04/05 12:49:37;;;;;;;0.00;0.00;;;;;;;22.79;33.68;95113.38;10465601;28;20871;-76
2024/04/05 12:54:38;;;;;;;0.00;0.00;;;;;;;23.46;32.05;95102.91;10465411;28;20392;-76
2024/04/05 12:59:38;;;;;;;0.00;0.00;;;;;;;23.56;31.27;95104.38;10465447;28;20618;-76
2024/04/05 13:04:38;;;;;;;0.00;0.00;;;;;;;23.50;32.16;95094.81;10465730;28;20278;-76
2024/04/05 13:09:40;;;;;;;0.00;0.00;;;;;;;23.44;32.49;95104.41;10464476;28;20514;-76
2024/04/05 13:14:41;;;;;;;0.00;0.00;;;;;;;23.41;33.42;95099.63;10464043;28;20282;-77
2024/04/05 13:19:41;;;;;;;0.00;0.00;;;;;;;23.52;32.29;95101.50;10446501;28;20372;-76
2024/04/05 13:24:43;;;;;;;0.00;0.00;;;;;;;23.34;33.74;95098.25;10462944;28;20515;-75
2024/04/05 13:29:44;;;;;;;0.00;0.00;;;;;;;23.23;32.39;95096.34;10425835;28;20298;-75
2024/04/05 13:34:44;;;;;;;0.00;0.00;;;;;;;23.17;32.36;95087.56;10463825;28;20470;-71
2024/04/05 13:39:44;;;;;;;0.00;0.00;;;;;;;22.72;33.94;95083.78;10463074;28;20681;-71
2024/04/05 13:44:45;;;;;;;0.00;0.00;;;;;;;22.57;32.81;95068.03;10440156;28;20335;-72
2024/04/05 13:49:48;;;;;;;0.00;0.00;;;;;;;22.34;32.77;95080.22;10429978;28;20439;-70
2024/04/05 13:54:49;;;;;;;0.00;0.00;;;;;;;22.62;33.40;95074.09;10460368;28;20383;-78
2024/04/05 13:59:49;;;;;;;0.00;0.00;;;;;;;22.75;33.51;95069.41;10442933;28;20031;-76
2024/04/05 14:04:49;;;;;;;0.00;0.00;;;;;;;22.92;32.32;95073.84;10461253;28;20270;-78
2024/04/05 14:09:50;;;;;;;0.00;0.00;;;;;;;23.22;31.81;95065.38;10460225;28;20466;-76
2024/04/05 14:14:51;;;;;;;0.00;0.00;;;;;;;23.30;31.83;95069.91;10460340;28;20024;-78
2024/04/05 14:19:51;;;;;;;0.00;0.00;;;;;;;23.16;31.27;95062.09;10460571;28;20415;-77
2024/04/05 14:24:52;;;;;;;0.00;0.00;;;;;;;22.61;32.59;95072.47;10460370;28;20155;-78
2024/04/05 14:29:52;;;;;;;0.00;0.00;;;;;;;22.03;32.82;95064.25;10459636;28;20755;-77
2024/04/05 14:34:53;;;;;;;0.00;0.00;;;;;;;21.83;32.89;95065.94;10456920;28;20025;-78
2024/04/05 14:39:53;;;;;;;0.00;0.00;;;;;;;21.35;33.87;95062.63;10459507;28;20387;-74
2024/04/05 14:44:56;;;;;;;0.00;0.00;;;;;;;21.42;33.27;95056.59;10459575;28;20024;-75
2024/04/05 14:49:56;;;;;;;0.00;0.00;;;;;;;21.34;33.64;95050.09;10459975;28;20705;-75
2024/04/05 14:54:56;;;;;;;0.00;0.00;;;;;;;21.32;33.92;95055.06;10459906;28;20127;-77
2024/04/05 14:59:57;;;;;;;0.00;0.00;;;;;;;21.31;32.88;95059.75;10459523;28;20105;-74
2024/04/05 15:04:58;;;;;;;0.73;0.00;;;;;;;21.25;33.20;95057.53;10459188;28;20033;-75
2024/04/05 15:09:59;;;;;;;0.00;0.00;;;;;;;21.14;33.79;95055.22;10441190;28;20757;-75
2024/04/05 15:14:59;;;;;;;0.00;0.00;;;;;;;21.16;34.93;95057.63;10458170;28;20086;-75
2024/04/05 15:20:00;;;;;;;0.00;0.00;;;;;;;21.12;34.76;95060.22;10459104;28;20290;-75
2024/04/05 15:25:00;;;;;;;0.00;0.00;;;;;;;20.95;34.87;95058.41;10440710;28;20307;-75
2024/04/05 15:30:00;;;;;;;0.00;0.00;;;;;;;21.03;33.50;95059.47;10458108;28;20036;-74
2024/04/05 15:35:01;;;;;;;0.00;0.00;;;;;;;21.01;34.60;95056.25;10459734;28;20266;-75
2024/04/05 15:40:01;;;;;;;0.00;0.00;;;;;;;20.95;34.42;95069.31;10466247;28;20278;-73
2024/04/05 15:45:02;;;;;;;0.00;0.00;;;;;;;20.87;33.82;95061.97;10465363;28;20278;-74
2024/04/05 15:50:03;;;;;;;0.00;0.00;;;;;;;20.80;34.88;95056.25;10466308;28;20039;-75
2024/04/05 15:55:04;;;;;;;0.00;0.00;;;;;;;20.76;33.70;95053.41;10465991;28;20108;-75
2024/04/05 16:00:05;;;;;;;0.00;0.00;;;;;;;20.61;33.85;95056.63;10465030;28;20020;-74
2024/04/05 16:05:05;;;;;;;0.00;0.00;;;;;;;20.55;34.01;95057.97;10467166;28;20029;-75
2024/04/05 16:10:07;;;;;;;0.00;0.00;;;;;;;20.45;33.98;95053.66;10465180;28;20017;-76
2024/04/05 16:15:07;;;;;;;0.00;0.00;;;;;;;20.44;34.80;95049.34;10466164;28;20818;-74
2024/04/05 16:20:08;;;;;;;0.00;0.00;;;;;;;20.34;34.42;95057.91;10464616;28;20036;-75
2024/04/05 16:25:09;;;;;;;0.00;0.00;;;;;;;20.26;34.80;95054.06;10465389;28;20076;-74
2024/04/05 16:30:12;;;;;;;0.00;0.00;;;;;;;20.07;34.68;95063.44;10464062;28;20067;-75
2024/04/05 16:35:13;;;;;;;0.00;0.00;;;;;;;20.10;36.40;95059.25;10464977;28;20514;-75
2024/04/05 16:40:13;;;;;;;0.00;0.00;;;;;;;19.92;35.17;95051.13;10463860;28;20028;-74
2024/04/05 16:45:15;;;;;;;0.00;0.00;;;;;;;19.85;35.45;95055.50;10463351;28;20412;-74
2024/04/05 16:50:15;;;;;;;0.00;0.00;;;;;;;19.72;35.59;95054.53;10462916;28;20028;-74
2024/04/05 16:55:16;;;;;;;0.00;0.00;;;;;;;19.62;36.12;95061.13;10463293;28;20016;-74
2024/04/05 17:00:16;;;;;;;0.00;0.00;;;;;;;19.43;36.98;95062.22;10462698;28;20491;-74
2024/04/05 17:05:21;;;;;;;0.00;0.00;;;;;;;19.21;37.82;95060.47;10462735;28;20024;-75
2024/04/05 17:10:33;;;;;;;0.00;0.00;;;;;;;19.08;38.28;95075.06;10462528;28;20039;-75
2024/04/05 17:15:34;;;;;;;0.00;0.00;;;;;;;18.86;38.87;95075.97;10462919;28;20028;-73
2024/04/05 17:20:34;;;;;;;0.00;0.00;;;;;;;18.78;39.18;95086.50;10462376;28;20438;-75
2024/04/05 17:25:35;;;;;;;0.00;0.00;;;;;;;18.88;42.27;95096.34;10461241;28;20071;-76
2024/04/05 17:30:36;;;;;;;0.00;0.00;;;;;;;18.83;43.19;95107.34;10462040;28;20302;-74
2024/04/05 17:35:36;;;;;;;0.00;0.00;;;;;;;18.73;44.74;95115.81;10462184;28;20040;-75
2024/04/05 17:40:37;;;;;;;0.00;0.00;;;;;;;18.62;45.09;95118.81;10461352;28;20287;-74
2024/04/05 17:45:37;;;;;;;0.00;0.00;;;;;;;18.49;42.94;95133.34;10449720;28;20284;-74
2024/04/05 17:50:39;;;;;;;0.00;0.00;;;;;;;18.26;43.54;95141.53;10464108;28;20296;-74
2024/04/05 17:55:39;;;;;;;0.00;0.00;;;;;;;17.81;44.42;95147.00;10465694;28;20372;-74
2024/04/05 18:00:41;;;;;;;0.00;0.00;;;;;;;17.57;44.97;95158.19;10462133;28;20024;-75
2024/04/05 18:05:41;;;;;;;0.00;0.00;;;;;;;17.38;45.07;95150.97;10445316;28;20481;-73
2024/04/05 18:10:42;;;;;;;0.00;0.00;;;;;;;17.28;45.98;95159.34;10462432;28;20467;-73
2024/04/05 18:15:42;;;;;;;0.00;0.00;;;;;;;17.18;47.07;95165.81;10462775;28;20286;-73
2024/04/05 18:20:42;;;;;;;0.00;0.00;;;;;;;17.07;47.16;95172.56;10461996;28;20353;-73
2024/04/05 18:25:46;;;;;;;0.00;0.00;;;;;;;17.01;47.03;95185.44;10454095;28;20066;-74
2024/04/05 18:30:46;;;;;;;0.00;0.00;;;;;;;16.95;49.59;95194.00;10461898;28;20391;-75
2024/04/05 18:35:48;;;;;;;0.00;0.00;;;;;;;16.90;52.93;95201.13;10449517;28;20031;-75
2024/04/05 18:40:50;;;;;;;0.00;0.00;;;;;;;16.61;54.04;95201.38;10462356;28;20048;-78
2024/04/05 18:45:51;;;;;;;0.00;0.00;;;;;;;16.42;52.34;95206.09;10460663;28;20021;-73
2024/04/05 18:50:51;;;;;;;0.00;0.00;;;;;;;16.40;55.66;95203.66;10451059;28;20119;-74
2024/04/05 18:55:52;;;;;;;0.00;0.00;;;;;;;16.35;56.44;95207.28;10474114;28;20024;-76
2024/04/05 19:00:54;;;;;;;0.00;0.00;;;;;;;16.10;58.07;95207.69;10442719;28;20478;-75
2024/04/05 19:05:54;;;;;;;0.00;0.00;;;;;;;16.05;65.12;95214.81;10453730;28;20032;-74
2024/04/05 19:10:55;;;;;;;0.00;0.00;;;;;;;15.91;61.06;95213.16;10444833;28;20032;-74
2024/04/05 19:15:55;;;;;;;0.00;0.00;;;;;;;15.63;64.39;95207.56;10451686;28;20047;-74
2024/04/05 19:20:56;;;;;;;0.00;0.00;;;;;;;15.37;62.63;95202.53;10468978;28;20368;-75
2024/04/05 19:25:57;;;;;;;0.00;0.00;;;;;;;15.28;65.46;95201.56;10468592;28;20071;-73
2024/04/05 19:30:57;;;;;;;0.00;0.00;;;;;;;15.16;63.03;95205.50;10468520;28;20399;-74
2024/04/05 19:35:57;;;;;;;0.00;0.00;;;;;;;15.11;67.26;95218.28;10469099;28;20028;-73
2024/04/05 19:40:59;;;;;;;0.00;0.00;;;;;;;15.13;76.64;95219.63;10468157;28;20437;-72
2024/04/05 19:46:00;;;;;;;0.00;0.00;;;;;;;14.74;71.47;95223.31;10468673;28;20498;-74
2024/04/05 19:51:00;;;;;;;0.00;0.00;;;;;;;14.79;67.49;95225.16;10449942;28;20369;-73
2024/04/05 19:56:01;;;;;;;0.00;0.00;;;;;;;14.70;67.50;95222.28;10466759;28;20548;-75
2024/04/05 20:01:01;;;;;;;0.00;0.00;;;;;;;14.66;69.00;95224.75;10467946;28;20274;-71
2024/04/05 20:06:02;;;;;;;4.20;0.10;;;;;;;14.75;64.97;95221.41;10467774;28;20028;-75
2024/04/05 20:11:02;;;;;;;0.00;0.00;;;;;;;14.64;69.08;95224.25;10467485;28;20283;-75
2024/04/05 20:16:03;;;;;;;0.00;0.00;;;;;;;14.67;76.50;95233.69;10466711;28;20464;-74
2024/04/05 20:21:03;;;;;;;0.00;0.00;;;;;;;14.59;76.51;95229.66;10467348;28;20054;-74
2024/04/05 20:26:05;;;;;;;0.00;0.00;;;;;;;14.61;77.58;95224.78;10466546;28;20151;-74
2024/04/05 20:36:24;;;;;;;0.00;0.00;;;;;;;14.30;80.06;95225.09;10466356;28;20479;-76
2024/04/05 20:41:24;;;;;;;0.00;0.00;;;;;;;14.29;79.88;95226.19;10448274;28;20024;-74
2024/04/05 20:46:25;;;;;;;0.00;0.00;;;;;;;14.27;78.93;95230.25;10465234;28;20017;-74
2024/04/05 20:51:25;;;;;;;0.00;0.00;;;;;;;14.21;81.37;95234.09;10465190;28;20995;-75
2024/04/05 20:56:29;;;;;;;0.00;0.00;;;;;;;13.82;84.11;95239.25;10447811;28;20797;-74
2024/04/05 21:01:30;;;;;;;0.00;0.00;;;;;;;13.92;85.43;95237.56;10446402;28;20453;-75
2024/04/05 21:06:31;;;;;;;0.00;0.00;;;;;;;13.86;81.43;95239.50;10465263;28;20027;-74
2024/04/05 21:11:31;;;;;;;0.00;0.00;;;;;;;13.84;74.93;95244.34;10465733;28;20020;-74
2024/04/05 21:16:31;;;;;;;0.00;0.00;;;;;;;13.91;77.71;95239.47;10464062;28;20517;-75
2024/04/05 21:21:32;;;;;;;0.00;0.00;;;;;;;13.85;72.42;95232.47;10464140;28;20490;-75
2024/04/05 21:26:32;;;;;;;0.00;0.00;;;;;;;13.78;72.31;95232.78;10446165;28;20435;-75
2024/04/05 21:31:33;;;;;;;0.00;0.00;;;;;;;13.60;71.39;95242.34;10463392;28;20055;-75
2024/04/05 21:36:33;;;;;;;0.00;0.00;;;;;;;13.54;70.98;95231.88;10463603;28;20525;-74
2024/04/05 21:41:33;;;;;;;0.00;0.00;;;;;;;13.41;71.50;95231.41;10464285;28;20113;-74
2024/04/05 21:46:34;;;;;;;0.00;0.00;;;;;;;13.31;72.45;95226.84;10463202;28;20142;-75
2024/04/05 21:51:34;;;;;;;0.00;0.00;;;;;;;13.08;74.49;95238.28;10462381;28;20761;-75
2024/04/05 21:56:34;;;;;;;0.00;0.00;;;;;;;13.03;76.22;95246.41;10463561;28;20033;-75
2024/04/05 22:01:36;;;;;;;0.00;0.00;;;;;;;13.06;76.43;95246.66;10462904;28;20020;-75
2024/04/05 22:06:37;;;;;;;0.00;0.00;;;;;;;13.02;77.04;95244.78;10444218;28;20314;-75
2024/04/05 22:11:37;;;;;;;0.00;0.00;;;;;;;13.04;78.92;95251.50;10462060;28;20035;-76
2024/04/05 22:16:38;;;;;;;0.00;0.00;;;;;;;12.96;81.88;95268.25;10463204;28;20121;-75
2024/04/05 22:21:38;;;;;;;0.00;0.00;;;;;;;13.01;83.32;95268.25;10462925;28;20119;-74
2024/04/05 22:26:39;;;;;;;0.00;0.00;;;;;;;12.94;85.15;95270.44;10463012;28;20840;-74
2024/04/05 22:31:39;;;;;;;0.00;0.00;;;;;;;12.85;89.37;95270.22;10463352;28;20028;-74
2024/04/05 22:36:39;;;;;;;0.00;0.00;;;;;;;12.83;85.26;95259.66;10462696;28;20031;-74
2024/04/05 22:41:40;;;;;;;0.00;0.00;;;;;;;12.75;85.99;95262.91;10462967;28;20733;-75
2024/04/05 22:46:40;;;;;;;0.00;0.00;;;;;;;12.54;86.85;95259.47;10461871;28;20263;-74
2024/04/05 22:51:40;;;;;;;0.00;0.00;;;;;;;12.52;91.68;95263.53;10461444;28;20332;-74
2024/04/05 22:56:41;;;;;;;0.00;0.00;;;;;;;12.27;91.17;95263.28;10460859;28;20021;-76
2024/04/05 23:01:41;;;;;;;0.00;0.00;;;;;;;12.07;94.28;95264.09;10462191;28;20267;-73
2024/04/05 23:06:42;;;;;;;0.00;0.00;;;;;;;11.79;99.65;95260.81;10462580;28;20024;-74
2024/04/05 23:11:43;;;;;;;0.00;0.00;;;;;;;11.71;100.00;95268.63;10462089;28;20036;-74
2024/04/05 23:16:44;;;;;;;0.00;0.00;;;;;;;11.57;100.00;95279.09;10462306;28;20282;-75
2024/04/05 23:21:44;;;;;;;0.00;0.00;;;;;;;11.56;100.00;95285.53;10462391;28;20027;-75